sensor_id;sensor_type;location;lat;lon;timestamp;temperature;humidity
85808;DHT22;76250;48.718;9.000;2024-02-04T00:02:24;29.00;29.80
85808;DHT22;76250;48.718;9.000;2024-02-04T00:04:53;29.00;29.80
85808;DHT22;76250;48.718;9.000;2024-02-04T00:07:21;29.00;29.80
85808;DHT22;76250;48.718;9.000;2024-02-04T00:09:49;29.00;29.80
85808;DHT22;76250;48.718;9.000;2024-02-04T00:12:17;29.00;30.10
85808;DHT22;76250;48.718;9.000;2024-02-04T00:14:45;29.00;29.70
85808;DHT22;76250;48.718;9.000;2024-02-04T00:17:13;28.90;29.60
85808;DHT22;76250;48.718;9.000;2024-02-04T00:19:42;28.90;29.60
85808;DHT22;76250;48.718;9.000;2024-02-04T00:22:10;28.90;29.50
85808;DHT22;76250;48.718;9.000;2024-02-04T00:24:38;28.90;29.60
85808;DHT22;76250;48.718;9.000;2024-02-04T00:27:07;28.90;29.50
85808;DHT22;76250;48.718;9.000;2024-02-04T00:29:35;28.90;29.60
85808;DHT22;76250;48.718;9.000;2024-02-04T00:32:03;28.90;29.60
85808;DHT22;76250;48.718;9.000;2024-02-04T00:34:31;28.90;29.60
85808;DHT22;76250;48.718;9.000;2024-02-04T00:36:59;28.80;29.60
85808;DHT22;76250;48.718;9.000;2024-02-04T00:39:28;28.80;29.60
85808;DHT22;76250;48.718;9.000;2024-02-04T00:41:56;28.80;29.60
85808;DHT22;76250;48.718;9.000;2024-02-04T00:44:24;28.80;29.60
85808;DHT22;76250;48.718;9.000;2024-02-04T00:46:52;28.80;29.60
85808;DHT22;76250;48.718;9.000;2024-02-04T00:49:20;28.80;29.60
85808;DHT22;76250;48.718;9.000;2024-02-04T00:51:48;28.80;29.60
85808;DHT22;76250;48.718;9.000;2024-02-04T00:54:17;28.80;29.60
85808;DHT22;76250;48.718;9.000;2024-02-04T00:56:45;28.70;29.50
85808;DHT22;76250;48.718;9.000;2024-02-04T00:59:13;28.80;29.60
85808;DHT22;76250;48.718;9.000;2024-02-04T01:01:41;28.70;29.60
85808;DHT22;76250;48.718;9.000;2024-02-04T01:04:10;28.70;29.50
85808;DHT22;76250;48.718;9.000;2024-02-04T01:06:39;28.70;29.50
85808;DHT22;76250;48.718;9.000;2024-02-04T01:09:23;28.70;29.60
85808;DHT22;76250;48.718;9.000;2024-02-04T01:11:51;28.70;29.60
85808;DHT22;76250;48.718;9.000;2024-02-04T01:14:20;28.70;29.60
85808;DHT22;76250;48.718;9.000;2024-02-04T01:16:49;28.60;29.50
85808;DHT22;76250;48.718;9.000;2024-02-04T01:19:17;28.60;29.50
85808;DHT22;76250;48.718;9.000;2024-02-04T01:21:46;28.60;29.50
85808;DHT22;76250;48.718;9.000;2024-02-04T01:24:14;28.60;29.50
85808;DHT22;76250;48.718;9.000;2024-02-04T01:26:42;28.60;29.60
85808;DHT22;76250;48.718;9.000;2024-02-04T01:29:10;28.60;29.60
85808;DHT22;76250;48.718;9.000;2024-02-04T01:31:38;28.60;29.60
85808;DHT22;76250;48.718;9.000;2024-02-04T01:34:06;28.60;29.50
85808;DHT22;76250;48.718;9.000;2024-02-04T01:36:34;28.60;29.60
85808;DHT22;76250;48.718;9.000;2024-02-04T01:39:02;28.60;29.50
85808;DHT22;76250;48.718;9.000;2024-02-04T01:41:31;28.60;29.50
85808;DHT22;76250;48.718;9.000;2024-02-04T01:43:59;28.60;29.60
85808;DHT22;76250;48.718;9.000;2024-02-04T01:46:27;28.60;29.50
85808;DHT22;76250;48.718;9.000;2024-02-04T01:48:55;28.50;29.50
85808;DHT22;76250;48.718;9.000;2024-02-04T01:51:24;28.50;29.50
85808;DHT22;76250;48.718;9.000;2024-02-04T01:53:52;28.50;29.50
85808;DHT22;76250;48.718;9.000;2024-02-04T01:56:21;28.50;29.50
85808;DHT22;76250;48.718;9.000;2024-02-04T01:58:49;28.50;29.50
85808;DHT22;76250;48.718;9.000;2024-02-04T02:01:19;28.50;29.50
85808;DHT22;76250;48.718;9.000;2024-02-04T02:03:48;28.50;29.50
85808;DHT22;76250;48.718;9.000;2024-02-04T02:06:18;28.50;29.50
85808;DHT22;76250;48.718;9.000;2024-02-04T02:08:48;28.50;29.50
85808;DHT22;76250;48.718;9.000;2024-02-04T02:11:31;28.50;29.50
85808;DHT22;76250;48.718;9.000;2024-02-04T02:14:03;28.50;29.50
85808;DHT22;76250;48.718;9.000;2024-02-04T02:16:34;28.50;29.50
85808;DHT22;76250;48.718;9.000;2024-02-04T02:25:16;28.50;29.50
85808;DHT22;76250;48.718;9.000;2024-02-04T02:27:50;28.40;29.40
85808;DHT22;76250;48.718;9.000;2024-02-04T02:30:18;28.50;29.50
85808;DHT22;76250;48.718;9.000;2024-02-04T02:32:49;28.40;29.40
85808;DHT22;76250;48.718;9.000;2024-02-04T02:35:17;28.40;29.50
85808;DHT22;76250;48.718;9.000;2024-02-04T02:37:56;28.50;29.50
85808;DHT22;76250;48.718;9.000;2024-02-04T02:40:45;28.40;29.40
85808;DHT22;76250;48.718;9.000;2024-02-04T02:43:15;28.40;29.50
85808;DHT22;76250;48.718;9.000;2024-02-04T02:45:44;28.40;29.50
85808;DHT22;76250;48.718;9.000;2024-02-04T02:48:13;28.50;29.50
85808;DHT22;76250;48.718;9.000;2024-02-04T02:50:42;28.40;29.40
85808;DHT22;76250;48.718;9.000;2024-02-04T02:53:10;28.40;29.40
85808;DHT22;76250;48.718;9.000;2024-02-04T02:55:38;28.40;29.40
85808;DHT22;76250;48.718;9.000;2024-02-04T02:58:06;28.40;29.40
85808;DHT22;76250;48.718;9.000;2024-02-04T03:00:35;28.40;29.40
85808;DHT22;76250;48.718;9.000;2024-02-04T03:03:03;28.40;29.40
85808;DHT22;76250;48.718;9.000;2024-02-04T03:05:32;28.40;29.40
85808;DHT22;76250;48.718;9.000;2024-02-04T03:08:00;28.40;29.40
85808;DHT22;76250;48.718;9.000;2024-02-04T03:10:28;28.40;29.40
85808;DHT22;76250;48.718;9.000;2024-02-04T03:12:56;28.30;29.40
85808;DHT22;76250;48.718;9.000;2024-02-04T03:15:24;28.40;29.40
85808;DHT22;76250;48.718;9.000;2024-02-04T03:17:52;28.40;29.40
85808;DHT22;76250;48.718;9.000;2024-02-04T03:20:20;28.40;29.40
85808;DHT22;76250;48.718;9.000;2024-02-04T03:22:48;28.40;29.40
85808;DHT22;76250;48.718;9.000;2024-02-04T03:25:17;28.40;29.40
85808;DHT22;76250;48.718;9.000;2024-02-04T03:27:45;28.40;29.40
85808;DHT22;76250;48.718;9.000;2024-02-04T03:30:14;28.40;29.40
85808;DHT22;76250;48.718;9.000;2024-02-04T03:32:42;28.40;29.40
85808;DHT22;76250;48.718;9.000;2024-02-04T03:35:10;28.40;29.40
85808;DHT22;76250;48.718;9.000;2024-02-04T03:37:38;28.30;29.80
85808;DHT22;76250;48.718;9.000;2024-02-04T03:40:07;28.30;29.40
85808;DHT22;76250;48.718;9.000;2024-02-04T03:42:35;28.30;29.40
85808;DHT22;76250;48.718;9.000;2024-02-04T03:45:04;28.30;29.40
85808;DHT22;76250;48.718;9.000;2024-02-04T03:47:33;28.30;29.40
85808;DHT22;76250;48.718;9.000;2024-02-04T03:50:01;28.30;29.40
85808;DHT22;76250;48.718;9.000;2024-02-04T03:52:29;28.30;29.40
85808;DHT22;76250;48.718;9.000;2024-02-04T03:54:57;28.30;29.40
85808;DHT22;76250;48.718;9.000;2024-02-04T03:57:29;28.30;29.40
85808;DHT22;76250;48.718;9.000;2024-02-04T03:59:58;28.30;29.40
85808;DHT22;76250;48.718;9.000;2024-02-04T04:02:26;28.30;29.40
85808;DHT22;76250;48.718;9.000;2024-02-04T04:04:54;28.30;29.40
85808;DHT22;76250;48.718;9.000;2024-02-04T04:07:22;28.30;29.40
85808;DHT22;76250;48.718;9.000;2024-02-04T04:09:50;28.30;29.40
85808;DHT22;76250;48.718;9.000;2024-02-04T04:12:18;28.20;29.30
85808;DHT22;76250;48.718;9.000;2024-02-04T04:14:46;28.20;29.30
85808;DHT22;76250;48.718;9.000;2024-02-04T04:17:14;28.20;29.30
85808;DHT22;76250;48.718;9.000;2024-02-04T04:19:42;28.20;29.40
85808;DHT22;76250;48.718;9.000;2024-02-04T04:22:10;28.20;29.30
85808;DHT22;76250;48.718;9.000;2024-02-04T04:24:38;28.20;29.30
85808;DHT22;76250;48.718;9.000;2024-02-04T04:27:07;28.20;29.30
85808;DHT22;76250;48.718;9.000;2024-02-04T04:29:35;28.20;29.30
85808;DHT22;76250;48.718;9.000;2024-02-04T04:32:03;28.20;29.30
85808;DHT22;76250;48.718;9.000;2024-02-04T04:34:32;28.20;29.30
85808;DHT22;76250;48.718;9.000;2024-02-04T04:37:00;28.20;29.40
85808;DHT22;76250;48.718;9.000;2024-02-04T04:39:28;28.20;29.30
85808;DHT22;76250;48.718;9.000;2024-02-04T04:41:56;28.20;29.30
85808;DHT22;76250;48.718;9.000;2024-02-04T04:44:24;28.20;29.40
85808;DHT22;76250;48.718;9.000;2024-02-04T04:46:52;28.20;29.40
85808;DHT22;76250;48.718;9.000;2024-02-04T04:49:20;28.20;29.30
85808;DHT22;76250;48.718;9.000;2024-02-04T04:51:49;28.20;29.30
85808;DHT22;76250;48.718;9.000;2024-02-04T04:54:17;28.20;29.40
85808;DHT22;76250;48.718;9.000;2024-02-04T04:56:45;28.20;29.40
85808;DHT22;76250;48.718;9.000;2024-02-04T04:59:14;28.20;29.30
85808;DHT22;76250;48.718;9.000;2024-02-04T05:01:47;28.20;29.30
85808;DHT22;76250;48.718;9.000;2024-02-04T05:04:16;28.20;29.30
85808;DHT22;76250;48.718;9.000;2024-02-04T05:06:46;28.20;29.30
85808;DHT22;76250;48.718;9.000;2024-02-04T05:09:14;28.20;29.30
85808;DHT22;76250;48.718;9.000;2024-02-04T05:11:43;28.20;29.30
85808;DHT22;76250;48.718;9.000;2024-02-04T05:14:11;28.20;29.30
85808;DHT22;76250;48.718;9.000;2024-02-04T05:16:39;28.20;29.30
85808;DHT22;76250;48.718;9.000;2024-02-04T05:19:07;28.20;29.30
85808;DHT22;76250;48.718;9.000;2024-02-04T05:21:38;28.20;29.30
85808;DHT22;76250;48.718;9.000;2024-02-04T05:24:07;28.20;29.30
85808;DHT22;76250;48.718;9.000;2024-02-04T05:26:35;28.20;29.30
85808;DHT22;76250;48.718;9.000;2024-02-04T05:29:03;28.20;29.30
85808;DHT22;76250;48.718;9.000;2024-02-04T05:31:31;28.20;29.30
85808;DHT22;76250;48.718;9.000;2024-02-04T05:34:04;28.20;29.30
85808;DHT22;76250;48.718;9.000;2024-02-04T05:36:34;28.20;29.30
85808;DHT22;76250;48.718;9.000;2024-02-04T05:39:12;28.20;29.30
85808;DHT22;76250;48.718;9.000;2024-02-04T05:41:42;28.20;29.30
85808;DHT22;76250;48.718;9.000;2024-02-04T05:44:10;28.20;29.20
85808;DHT22;76250;48.718;9.000;2024-02-04T05:46:38;28.20;29.30
85808;DHT22;76250;48.718;9.000;2024-02-04T05:49:07;28.20;29.30
85808;DHT22;76250;48.718;9.000;2024-02-04T05:51:39;28.20;29.30
85808;DHT22;76250;48.718;9.000;2024-02-04T05:54:11;28.20;29.20
85808;DHT22;76250;48.718;9.000;2024-02-04T05:56:38;28.20;29.30
85808;DHT22;76250;48.718;9.000;2024-02-04T05:59:06;28.20;29.20
85808;DHT22;76250;48.718;9.000;2024-02-04T06:01:34;28.20;29.20
85808;DHT22;76250;48.718;9.000;2024-02-04T06:04:02;28.20;29.20
85808;DHT22;76250;48.718;9.000;2024-02-04T06:06:31;28.20;29.20
85808;DHT22;76250;48.718;9.000;2024-02-04T06:09:00;28.20;29.20
85808;DHT22;76250;48.718;9.000;2024-02-04T06:11:28;28.20;29.20
85808;DHT22;76250;48.718;9.000;2024-02-04T06:13:56;28.20;29.20
85808;DHT22;76250;48.718;9.000;2024-02-04T06:16:24;28.20;29.20
85808;DHT22;76250;48.718;9.000;2024-02-04T06:18:52;28.20;29.30
85808;DHT22;76250;48.718;9.000;2024-02-04T06:21:24;28.20;29.20
85808;DHT22;76250;48.718;9.000;2024-02-04T06:23:52;28.20;29.20
85808;DHT22;76250;48.718;9.000;2024-02-04T06:26:20;28.20;29.10
85808;DHT22;76250;48.718;9.000;2024-02-04T06:28:48;28.10;29.10
85808;DHT22;76250;48.718;9.000;2024-02-04T06:31:19;28.20;29.10
85808;DHT22;76250;48.718;9.000;2024-02-04T06:33:47;28.10;29.20
85808;DHT22;76250;48.718;9.000;2024-02-04T06:36:15;28.10;29.20
85808;DHT22;76250;48.718;9.000;2024-02-04T06:38:43;28.10;29.20
85808;DHT22;76250;48.718;9.000;2024-02-04T06:41:11;28.10;29.20
85808;DHT22;76250;48.718;9.000;2024-02-04T06:43:39;28.10;29.20
85808;DHT22;76250;48.718;9.000;2024-02-04T06:46:07;28.10;29.20
85808;DHT22;76250;48.718;9.000;2024-02-04T06:48:35;28.10;29.20
85808;DHT22;76250;48.718;9.000;2024-02-04T06:51:04;28.20;29.20
85808;DHT22;76250;48.718;9.000;2024-02-04T06:53:32;28.20;29.20
85808;DHT22;76250;48.718;9.000;2024-02-04T06:56:00;28.20;29.20
85808;DHT22;76250;48.718;9.000;2024-02-04T06:58:28;28.20;29.20
85808;DHT22;76250;48.718;9.000;2024-02-04T07:00:56;28.20;29.20
85808;DHT22;76250;48.718;9.000;2024-02-04T07:03:24;28.20;29.20
85808;DHT22;76250;48.718;9.000;2024-02-04T07:05:53;28.20;29.20
85808;DHT22;76250;48.718;9.000;2024-02-04T07:08:21;28.30;29.30
85808;DHT22;76250;48.718;9.000;2024-02-04T07:10:49;28.20;29.20
85808;DHT22;76250;48.718;9.000;2024-02-04T07:13:18;28.20;29.20
85808;DHT22;76250;48.718;9.000;2024-02-04T07:15:47;28.30;29.20
85808;DHT22;76250;48.718;9.000;2024-02-04T07:18:15;28.20;29.20
85808;DHT22;76250;48.718;9.000;2024-02-04T07:20:45;28.20;29.20
85808;DHT22;76250;48.718;9.000;2024-02-04T07:23:13;28.20;29.20
85808;DHT22;76250;48.718;9.000;2024-02-04T07:25:41;28.20;29.20
85808;DHT22;76250;48.718;9.000;2024-02-04T07:28:09;28.20;29.20
85808;DHT22;76250;48.718;9.000;2024-02-04T07:30:37;28.20;29.20
85808;DHT22;76250;48.718;9.000;2024-02-04T07:33:05;28.20;29.30
85808;DHT22;76250;48.718;9.000;2024-02-04T07:35:33;28.20;29.10
85808;DHT22;76250;48.718;9.000;2024-02-04T07:38:01;28.20;29.10
85808;DHT22;76250;48.718;9.000;2024-02-04T07:40:30;28.20;29.10
85808;DHT22;76250;48.718;9.000;2024-02-04T07:42:59;28.20;29.20
85808;DHT22;76250;48.718;9.000;2024-02-04T07:45:27;28.20;29.10
85808;DHT22;76250;48.718;9.000;2024-02-04T07:47:55;28.20;29.10
85808;DHT22;76250;48.718;9.000;2024-02-04T07:50:23;28.20;29.00
85808;DHT22;76250;48.718;9.000;2024-02-04T07:52:52;28.20;29.00
85808;DHT22;76250;48.718;9.000;2024-02-04T07:55:19;28.20;28.90
85808;DHT22;76250;48.718;9.000;2024-02-04T07:57:48;28.20;29.00
85808;DHT22;76250;48.718;9.000;2024-02-04T08:00:16;28.20;28.90
85808;DHT22;76250;48.718;9.000;2024-02-04T08:02:44;28.20;29.00
85808;DHT22;76250;48.718;9.000;2024-02-04T08:05:13;28.20;29.00
85808;DHT22;76250;48.718;9.000;2024-02-04T08:07:41;28.20;29.00
85808;DHT22;76250;48.718;9.000;2024-02-04T08:10:09;28.20;29.00
85808;DHT22;76250;48.718;9.000;2024-02-04T08:12:38;28.20;29.00
85808;DHT22;76250;48.718;9.000;2024-02-04T08:15:06;28.30;29.00
85808;DHT22;76250;48.718;9.000;2024-02-04T08:17:34;28.30;29.00
85808;DHT22;76250;48.718;9.000;2024-02-04T08:20:02;28.30;29.00
85808;DHT22;76250;48.718;9.000;2024-02-04T08:22:32;28.20;29.00
85808;DHT22;76250;48.718;9.000;2024-02-04T08:25:01;28.30;29.00
85808;DHT22;76250;48.718;9.000;2024-02-04T08:27:30;28.30;29.00
85808;DHT22;76250;48.718;9.000;2024-02-04T08:29:58;28.30;29.10
85808;DHT22;76250;48.718;9.000;2024-02-04T08:32:26;28.30;29.00
85808;DHT22;76250;48.718;9.000;2024-02-04T08:34:54;28.30;29.00
85808;DHT22;76250;48.718;9.000;2024-02-04T08:37:22;28.30;29.00
85808;DHT22;76250;48.718;9.000;2024-02-04T08:39:55;28.30;29.10
85808;DHT22;76250;48.718;9.000;2024-02-04T08:42:23;28.40;29.10
85808;DHT22;76250;48.718;9.000;2024-02-04T08:44:51;28.40;29.10
85808;DHT22;76250;48.718;9.000;2024-02-04T08:47:19;28.30;29.00
85808;DHT22;76250;48.718;9.000;2024-02-04T08:49:47;28.40;29.10
85808;DHT22;76250;48.718;9.000;2024-02-04T08:52:15;28.40;29.10
85808;DHT22;76250;48.718;9.000;2024-02-04T08:54:43;28.40;29.00
85808;DHT22;76250;48.718;9.000;2024-02-04T08:57:11;28.40;29.00
85808;DHT22;76250;48.718;9.000;2024-02-04T08:59:39;28.40;29.00
85808;DHT22;76250;48.718;9.000;2024-02-04T09:02:07;28.40;29.00
85808;DHT22;76250;48.718;9.000;2024-02-04T09:04:38;28.40;29.00
85808;DHT22;76250;48.718;9.000;2024-02-04T09:07:08;28.40;29.00
85808;DHT22;76250;48.718;9.000;2024-02-04T09:09:37;28.40;29.00
85808;DHT22;76250;48.718;9.000;2024-02-04T09:12:05;28.50;29.00
85808;DHT22;76250;48.718;9.000;2024-02-04T09:14:33;28.40;29.00
85808;DHT22;76250;48.718;9.000;2024-02-04T09:17:05;28.50;29.00
85808;DHT22;76250;48.718;9.000;2024-02-04T09:19:34;28.40;28.90
85808;DHT22;76250;48.718;9.000;2024-02-04T09:22:08;28.40;28.90
85808;DHT22;76250;48.718;9.000;2024-02-04T09:24:37;28.40;28.90
85808;DHT22;76250;48.718;9.000;2024-02-04T09:27:05;28.50;29.00
85808;DHT22;76250;48.718;9.000;2024-02-04T09:29:33;28.40;28.90
85808;DHT22;76250;48.718;9.000;2024-02-04T09:32:01;28.50;29.00
85808;DHT22;76250;48.718;9.000;2024-02-04T09:34:30;28.50;29.00
85808;DHT22;76250;48.718;9.000;2024-02-04T09:36:58;28.50;29.00
85808;DHT22;76250;48.718;9.000;2024-02-04T09:39:26;28.50;29.00
85808;DHT22;76250;48.718;9.000;2024-02-04T09:41:54;28.50;29.00
85808;DHT22;76250;48.718;9.000;2024-02-04T09:44:23;28.50;29.00
85808;DHT22;76250;48.718;9.000;2024-02-04T09:46:53;28.50;29.00
85808;DHT22;76250;48.718;9.000;2024-02-04T09:49:22;28.50;29.10
85808;DHT22;76250;48.718;9.000;2024-02-04T09:51:50;28.50;29.00
85808;DHT22;76250;48.718;9.000;2024-02-04T09:54:21;28.50;29.00
85808;DHT22;76250;48.718;9.000;2024-02-04T09:56:51;28.60;29.10
85808;DHT22;76250;48.718;9.000;2024-02-04T09:59:19;28.60;29.10
85808;DHT22;76250;48.718;9.000;2024-02-04T10:01:47;28.50;29.20
85808;DHT22;76250;48.718;9.000;2024-02-04T10:04:16;28.60;29.10
85808;DHT22;76250;48.718;9.000;2024-02-04T10:06:44;28.60;29.10
85808;DHT22;76250;48.718;9.000;2024-02-04T10:09:13;28.60;29.10
85808;DHT22;76250;48.718;9.000;2024-02-04T10:11:41;28.60;29.10
85808;DHT22;76250;48.718;9.000;2024-02-04T10:14:09;28.70;29.10
85808;DHT22;76250;48.718;9.000;2024-02-04T10:16:37;28.70;29.10
85808;DHT22;76250;48.718;9.000;2024-02-04T10:19:05;28.70;29.10
85808;DHT22;76250;48.718;9.000;2024-02-04T10:21:34;28.80;29.20
85808;DHT22;76250;48.718;9.000;2024-02-04T10:24:02;28.80;29.10
85808;DHT22;76250;48.718;9.000;2024-02-04T10:26:30;28.80;29.10
85808;DHT22;76250;48.718;9.000;2024-02-04T10:28:59;28.90;29.30
85808;DHT22;76250;48.718;9.000;2024-02-04T10:31:27;28.90;29.00
85808;DHT22;76250;48.718;9.000;2024-02-04T10:33:55;28.90;29.00
85808;DHT22;76250;48.718;9.000;2024-02-04T10:36:24;28.90;29.00
85808;DHT22;76250;48.718;9.000;2024-02-04T10:38:52;29.00;29.00
85808;DHT22;76250;48.718;9.000;2024-02-04T10:41:20;29.00;29.00
85808;DHT22;76250;48.718;9.000;2024-02-04T10:43:49;29.00;29.00
85808;DHT22;76250;48.718;9.000;2024-02-04T10:46:19;29.00;28.90
85808;DHT22;76250;48.718;9.000;2024-02-04T10:49:00;29.10;29.00
85808;DHT22;76250;48.718;9.000;2024-02-04T10:51:32;29.10;28.90
85808;DHT22;76250;48.718;9.000;2024-02-04T10:54:03;29.10;28.90
85808;DHT22;76250;48.718;9.000;2024-02-04T10:56:38;29.10;28.90
85808;DHT22;76250;48.718;9.000;2024-02-04T10:59:11;29.10;28.90
85808;DHT22;76250;48.718;9.000;2024-02-04T11:01:46;29.20;29.00
85808;DHT22;76250;48.718;9.000;2024-02-04T11:04:17;29.20;28.90
85808;DHT22;76250;48.718;9.000;2024-02-04T11:06:46;29.20;28.90
85808;DHT22;76250;48.718;9.000;2024-02-04T11:09:16;29.20;28.90
85808;DHT22;76250;48.718;9.000;2024-02-04T11:11:45;29.20;28.90
85808;DHT22;76250;48.718;9.000;2024-02-04T11:14:17;29.30;29.00
85808;DHT22;76250;48.718;9.000;2024-02-04T11:17:12;29.30;28.90
85808;DHT22;76250;48.718;9.000;2024-02-04T11:20:01;29.30;28.90
85808;DHT22;76250;48.718;9.000;2024-02-04T11:25:57;29.30;28.90
85808;DHT22;76250;48.718;9.000;2024-02-04T11:28:26;29.30;28.90
85808;DHT22;76250;48.718;9.000;2024-02-04T11:30:55;29.30;29.00
85808;DHT22;76250;48.718;9.000;2024-02-04T11:33:24;29.30;28.90
85808;DHT22;76250;48.718;9.000;2024-02-04T11:36:05;29.30;28.90
85808;DHT22;76250;48.718;9.000;2024-02-04T11:38:38;29.30;28.80
85808;DHT22;76250;48.718;9.000;2024-02-04T11:41:06;29.30;28.90
85808;DHT22;76250;48.718;9.000;2024-02-04T11:43:38;29.30;28.90
85808;DHT22;76250;48.718;9.000;2024-02-04T11:46:07;29.30;28.90
85808;DHT22;76250;48.718;9.000;2024-02-04T11:48:51;29.30;28.90
85808;DHT22;76250;48.718;9.000;2024-02-04T11:51:24;29.30;30.30
85808;DHT22;76250;48.718;9.000;2024-02-04T11:53:53;29.30;30.90
85808;DHT22;76250;48.718;9.000;2024-02-04T11:56:23;29.40;29.50
85808;DHT22;76250;48.718;9.000;2024-02-04T11:58:52;29.40;29.30
85808;DHT22;76250;48.718;9.000;2024-02-04T12:01:22;29.40;29.20
85808;DHT22;76250;48.718;9.000;2024-02-04T12:03:51;29.40;29.20
85808;DHT22;76250;48.718;9.000;2024-02-04T12:06:20;29.40;29.10
85808;DHT22;76250;48.718;9.000;2024-02-04T12:08:48;29.40;29.10
85808;DHT22;76250;48.718;9.000;2024-02-04T12:11:16;29.40;29.00
85808;DHT22;76250;48.718;9.000;2024-02-04T12:13:45;29.40;29.50
85808;DHT22;76250;48.718;9.000;2024-02-04T12:16:14;29.50;29.10
85808;DHT22;76250;48.718;9.000;2024-02-04T12:18:49;29.40;29.00
85808;DHT22;76250;48.718;9.000;2024-02-04T12:21:18;29.40;29.00
85808;DHT22;76250;48.718;9.000;2024-02-04T12:23:47;29.40;29.00
85808;DHT22;76250;48.718;9.000;2024-02-04T12:26:15;29.40;28.90
85808;DHT22;76250;48.718;9.000;2024-02-04T12:28:43;29.40;28.90
85808;DHT22;76250;48.718;9.000;2024-02-04T12:31:21;29.40;28.90
85808;DHT22;76250;48.718;9.000;2024-02-04T12:33:59;29.50;28.90
85808;DHT22;76250;48.718;9.000;2024-02-04T12:36:31;29.50;28.90
85808;DHT22;76250;48.718;9.000;2024-02-04T12:39:01;29.50;28.90
85808;DHT22;76250;48.718;9.000;2024-02-04T12:41:31;29.50;28.90
85808;DHT22;76250;48.718;9.000;2024-02-04T12:43:59;29.50;28.90
85808;DHT22;76250;48.718;9.000;2024-02-04T12:46:32;29.50;28.90
85808;DHT22;76250;48.718;9.000;2024-02-04T12:49:00;29.50;28.90
85808;DHT22;76250;48.718;9.000;2024-02-04T12:51:33;29.50;28.90
85808;DHT22;76250;48.718;9.000;2024-02-04T12:54:10;29.50;28.90
85808;DHT22;76250;48.718;9.000;2024-02-04T12:56:52;29.50;28.80
85808;DHT22;76250;48.718;9.000;2024-02-04T12:59:28;29.50;28.90
85808;DHT22;76250;48.718;9.000;2024-02-04T13:01:59;29.50;28.80
85808;DHT22;76250;48.718;9.000;2024-02-04T13:04:40;29.50;28.80
85808;DHT22;76250;48.718;9.000;2024-02-04T13:07:12;29.50;28.80
85808;DHT22;76250;48.718;9.000;2024-02-04T13:09:43;29.50;28.80
85808;DHT22;76250;48.718;9.000;2024-02-04T13:12:14;29.60;29.00
85808;DHT22;76250;48.718;9.000;2024-02-04T13:14:43;29.50;28.90
85808;DHT22;76250;48.718;9.000;2024-02-04T13:17:12;29.50;28.90
85808;DHT22;76250;48.718;9.000;2024-02-04T13:19:40;29.50;28.80
85808;DHT22;76250;48.718;9.000;2024-02-04T13:22:09;29.50;28.90
85808;DHT22;76250;48.718;9.000;2024-02-04T13:24:38;29.50;28.90
85808;DHT22;76250;48.718;9.000;2024-02-04T13:27:07;29.40;28.90
85808;DHT22;76250;48.718;9.000;2024-02-04T13:29:35;29.40;28.90
85808;DHT22;76250;48.718;9.000;2024-02-04T13:32:04;29.30;28.90
85808;DHT22;76250;48.718;9.000;2024-02-04T13:34:33;29.30;28.90
85808;DHT22;76250;48.718;9.000;2024-02-04T13:37:01;29.30;29.00
85808;DHT22;76250;48.718;9.000;2024-02-04T13:39:29;29.20;29.00
85808;DHT22;76250;48.718;9.000;2024-02-04T13:41:57;29.20;29.10
85808;DHT22;76250;48.718;9.000;2024-02-04T13:44:25;29.10;29.20
85808;DHT22;76250;48.718;9.000;2024-02-04T13:46:53;29.10;29.30
85808;DHT22;76250;48.718;9.000;2024-02-04T13:49:21;29.10;29.50
85808;DHT22;76250;48.718;9.000;2024-02-04T13:51:49;29.00;29.50
85808;DHT22;76250;48.718;9.000;2024-02-04T13:54:20;29.10;29.60
85808;DHT22;76250;48.718;9.000;2024-02-04T13:56:48;29.10;29.70
85808;DHT22;76250;48.718;9.000;2024-02-04T13:59:17;29.00;29.70
85808;DHT22;76250;48.718;9.000;2024-02-04T14:01:45;29.00;29.70
85808;DHT22;76250;48.718;9.000;2024-02-04T14:04:13;29.00;29.70
85808;DHT22;76250;48.718;9.000;2024-02-04T14:06:41;29.00;29.70
85808;DHT22;76250;48.718;9.000;2024-02-04T14:09:09;28.90;29.70
85808;DHT22;76250;48.718;9.000;2024-02-04T14:11:40;29.00;29.80
85808;DHT22;76250;48.718;9.000;2024-02-04T14:14:08;29.00;29.70
85808;DHT22;76250;48.718;9.000;2024-02-04T14:16:36;29.00;29.80
85808;DHT22;76250;48.718;9.000;2024-02-04T14:19:04;29.00;29.80
85808;DHT22;76250;48.718;9.000;2024-02-04T14:21:33;29.00;29.90
85808;DHT22;76250;48.718;9.000;2024-02-04T14:24:01;28.90;29.80
85808;DHT22;76250;48.718;9.000;2024-02-04T14:26:29;28.90;29.80
85808;DHT22;76250;48.718;9.000;2024-02-04T14:28:57;29.00;29.80
85808;DHT22;76250;48.718;9.000;2024-02-04T14:31:25;28.90;29.80
85808;DHT22;76250;48.718;9.000;2024-02-04T14:33:53;28.90;29.80
85808;DHT22;76250;48.718;9.000;2024-02-04T14:36:21;28.90;29.80
85808;DHT22;76250;48.718;9.000;2024-02-04T14:38:49;28.90;29.80
85808;DHT22;76250;48.718;9.000;2024-02-04T14:41:17;28.90;29.80
85808;DHT22;76250;48.718;9.000;2024-02-04T14:43:45;28.90;29.90
85808;DHT22;76250;48.718;9.000;2024-02-04T14:46:13;28.80;29.80
85808;DHT22;76250;48.718;9.000;2024-02-04T14:48:41;28.90;29.90
85808;DHT22;76250;48.718;9.000;2024-02-04T14:51:10;28.90;29.90
85808;DHT22;76250;48.718;9.000;2024-02-04T14:53:38;28.90;30.00
85808;DHT22;76250;48.718;9.000;2024-02-04T14:56:06;28.90;30.00
85808;DHT22;76250;48.718;9.000;2024-02-04T14:58:36;28.90;30.40
85808;DHT22;76250;48.718;9.000;2024-02-04T15:01:04;28.90;30.00
85808;DHT22;76250;48.718;9.000;2024-02-04T15:03:33;28.90;30.00
85808;DHT22;76250;48.718;9.000;2024-02-04T15:06:01;28.90;30.00
85808;DHT22;76250;48.718;9.000;2024-02-04T15:08:29;28.90;30.00
85808;DHT22;76250;48.718;9.000;2024-02-04T15:10:58;28.90;30.00
85808;DHT22;76250;48.718;9.000;2024-02-04T15:13:26;29.00;30.00
85808;DHT22;76250;48.718;9.000;2024-02-04T15:16:00;29.00;30.00
85808;DHT22;76250;48.718;9.000;2024-02-04T15:18:29;29.00;30.00
85808;DHT22;76250;48.718;9.000;2024-02-04T15:20:58;29.10;30.00
85808;DHT22;76250;48.718;9.000;2024-02-04T15:23:26;29.10;30.00
85808;DHT22;76250;48.718;9.000;2024-02-04T15:25:55;29.20;30.00
85808;DHT22;76250;48.718;9.000;2024-02-04T15:28:24;29.20;30.00
85808;DHT22;76250;48.718;9.000;2024-02-04T15:30:53;29.20;30.00
85808;DHT22;76250;48.718;9.000;2024-02-04T15:33:21;29.30;30.00
85808;DHT22;76250;48.718;9.000;2024-02-04T15:35:50;29.30;29.90
85808;DHT22;76250;48.718;9.000;2024-02-04T15:38:18;29.30;30.00
85808;DHT22;76250;48.718;9.000;2024-02-04T15:40:46;29.30;29.90
85808;DHT22;76250;48.718;9.000;2024-02-04T15:43:15;29.40;29.90
85808;DHT22;76250;48.718;9.000;2024-02-04T15:45:43;29.40;29.80
85808;DHT22;76250;48.718;9.000;2024-02-04T15:48:17;29.40;29.90
85808;DHT22;76250;48.718;9.000;2024-02-04T15:50:46;29.40;29.80
85808;DHT22;76250;48.718;9.000;2024-02-04T15:53:15;29.50;29.90